createdAt,value
2022-08-01T00:00:11.988Z,100793.81
2022-08-01T00:02:38.295Z,100789.03
2022-08-01T00:05:04.687Z,100786.84
2022-08-01T00:07:30.917Z,100786.38
2022-08-01T00:09:57.186Z,100783.81
2022-08-01T00:12:23.401Z,100771.09
2022-08-01T00:14:49.677Z,100778.69
2022-08-01T00:17:15.908Z,100781.59
2022-08-01T00:19:42.161Z,100793.13
2022-08-01T00:22:08.705Z,100788.38
2022-08-01T00:24:35.186Z,100788.72
2022-08-01T00:27:01.390Z,100797.50
2022-08-01T00:30:12.382Z,100797.38
2022-08-01T00:32:13.913Z,100792.59
2022-08-01T00:34:40.165Z,100781.97
2022-08-01T00:37:06.394Z,100789.72
2022-08-01T00:39:32.691Z,100789.22
2022-08-01T00:41:59.940Z,100789.75
2022-08-01T00:44:26.328Z,100795.44
2022-08-01T00:46:52.563Z,100796.47
2022-08-01T00:49:18.837Z,100795.97
2022-08-01T00:51:45.093Z,100798.03
2022-08-01T00:54:11.330Z,100797.19
2022-08-01T00:56:39.544Z,100789.13
2022-08-01T00:59:05.770Z,100794.81
2022-08-01T01:01:39.416Z,100795.00
2022-08-01T01:04:08.597Z,100790.53
2022-08-01T01:06:35.032Z,100795.00
2022-08-01T01:09:03.654Z,100790.34
2022-08-01T01:11:29.938Z,100783.81
2022-08-01T01:13:56.177Z,100792.25
2022-08-01T01:16:22.523Z,100786.06
2022-08-01T01:18:48.742Z,100788.31
2022-08-01T01:21:15.012Z,100776.66
2022-08-01T01:23:41.225Z,100782.31
2022-08-01T01:26:07.525Z,100783.38
2022-08-01T01:28:33.744Z,100784.41
2022-08-01T01:31:00.056Z,100783.56
2022-08-01T01:33:26.308Z,100781.16
2022-08-01T01:35:52.550Z,100783.41
2022-08-01T01:38:18.851Z,100777.25
2022-08-01T01:40:45.094Z,100775.72
2022-08-01T01:43:11.334Z,100779.84
2022-08-01T01:45:37.573Z,100775.38
2022-08-01T01:48:03.779Z,100769.41
2022-08-01T01:50:30.033Z,100772.47
2022-08-01T01:52:56.239Z,100772.66
2022-08-01T01:55:22.531Z,100774.91
2022-08-01T01:57:48.804Z,100767.84
2022-08-01T02:00:15.071Z,100768.41
2022-08-01T02:02:41.363Z,100777.16
2022-08-01T02:05:07.634Z,100773.72
2022-08-01T02:07:34.111Z,100771.34
2022-08-01T02:10:00.337Z,100783.16
2022-08-01T02:12:26.575Z,100782.31
2022-08-01T02:14:52.809Z,100779.75
2022-08-01T02:17:19.045Z,100788.31
2022-08-01T02:19:45.273Z,100783.84
2022-08-01T02:22:11.747Z,100789.03
2022-08-01T02:24:37.984Z,100790.59
2022-08-01T02:27:04.236Z,100789.22
2022-08-01T02:29:30.474Z,100784.94
2022-08-01T02:31:56.816Z,100782.72
2022-08-01T02:34:23.046Z,100781.53
2022-08-01T02:36:49.296Z,100782.19
2022-08-01T02:39:15.620Z,100786.16
2022-08-01T02:41:41.919Z,100779.66
2022-08-01T02:44:08.192Z,100788.38
2022-08-01T02:46:34.536Z,100785.97
2022-08-01T02:49:00.833Z,100786.31
2022-08-01T02:51:27.145Z,100791.47
2022-08-01T02:53:53.469Z,100786.31
2022-08-01T02:56:19.769Z,100788.38
2022-08-01T02:58:45.985Z,100787.72
2022-08-01T03:01:12.274Z,100789.75
2022-08-01T03:03:38.543Z,100789.75
2022-08-01T03:06:04.835Z,100783.44
2022-08-01T03:08:31.061Z,100784.97
2022-08-01T03:10:57.303Z,100787.84
2022-08-01T03:13:23.560Z,100785.28
2022-08-01T03:15:49.806Z,100795.53
2022-08-01T03:18:16.009Z,100795.72
2022-08-01T03:20:42.276Z,100795.34
2022-08-01T03:23:08.570Z,100801.00
2022-08-01T03:25:34.802Z,100803.22
2022-08-01T03:28:01.086Z,100804.25
2022-08-01T03:30:27.309Z,100807.16
2022-08-01T03:32:53.625Z,100804.59
2022-08-01T03:35:19.928Z,100806.47
2022-08-01T03:38:13.464Z,100809.38
2022-08-01T03:40:32.494Z,100810.59
2022-08-01T03:42:58.829Z,100813.50
2022-08-01T03:45:25.194Z,100808.00
2022-08-01T03:47:52.076Z,100810.03
2022-08-01T03:50:18.369Z,100812.97
2022-08-01T03:52:44.638Z,100810.03
2022-08-01T03:55:10.856Z,100817.41
2022-08-01T03:57:37.224Z,100812.97
2022-08-01T04:00:03.515Z,100817.59
2022-08-01T04:02:29.793Z,100816.38
2022-08-01T04:04:56.034Z,100819.09
2022-08-01T04:07:22.312Z,100817.91
2022-08-01T04:09:48.532Z,100818.97
2022-08-01T04:12:14.830Z,100825.28
2022-08-01T04:14:41.069Z,100823.41
2022-08-01T04:17:07.443Z,100828.69
2022-08-01T04:19:33.675Z,100822.22
2022-08-01T04:21:59.925Z,100824.59
2022-08-01T04:24:26.196Z,100827.19
2022-08-01T04:26:52.473Z,100825.16
2022-08-01T04:29:18.763Z,100821.34
2022-08-01T04:31:45.025Z,100823.78
2022-08-01T04:34:11.278Z,100830.09
2022-08-01T04:36:37.522Z,100824.47
2022-08-01T04:39:04.170Z,100831.66
2022-08-01T04:41:30.528Z,100833.22
2022-08-01T04:43:56.766Z,100831.00
2022-08-01T04:46:23.027Z,100833.41
2022-08-01T04:48:49.486Z,100834.28
2022-08-01T04:51:15.751Z,100840.94
2022-08-01T04:53:41.978Z,100850.00
2022-08-01T04:56:08.223Z,100845.69
2022-08-01T04:58:34.472Z,100843.28
2022-08-01T05:01:00.743Z,100847.91
2022-08-01T05:03:27.033Z,100852.38
2022-08-01T05:05:53.269Z,100853.91
2022-08-01T05:08:19.541Z,100857.84
2022-08-01T05:10:45.748Z,100857.31
2022-08-01T05:13:12.023Z,100866.22
2022-08-01T05:15:38.282Z,100866.91
2022-08-01T05:18:04.579Z,100856.13
2022-08-01T05:20:30.813Z,100860.91
2022-08-01T05:22:57.773Z,100866.56
2022-08-01T05:25:56.106Z,100864.69
2022-08-01T05:28:10.620Z,100871.34
2022-08-01T05:30:37.179Z,100866.91
2022-08-01T05:33:03.624Z,100874.09
2022-08-01T05:35:48.381Z,100875.09
2022-08-01T05:38:15.526Z,100872.19
2022-08-01T05:40:41.851Z,100872.38
2022-08-01T05:43:08.365Z,100869.97
2022-08-01T05:45:34.822Z,100880.94
2022-08-01T05:48:01.160Z,100872.38
2022-08-01T05:50:27.479Z,100874.94
2022-08-01T05:52:54.009Z,100879.22
2022-08-01T05:55:20.318Z,100867.09
2022-08-01T05:57:46.560Z,100877.88
2022-08-01T06:00:12.945Z,100886.94
2022-08-01T06:02:39.312Z,100886.47
2022-08-01T06:05:08.129Z,100884.25
2022-08-01T06:07:36.489Z,100888.38
2022-08-01T06:10:05.590Z,100900.72
2022-08-01T06:12:35.461Z,100893.69
2022-08-01T06:15:02.074Z,100887.19
2022-08-01T06:17:28.386Z,100894.72
2022-08-01T06:19:54.850Z,100889.06
2022-08-01T06:22:21.205Z,100895.09
2022-08-01T06:24:48.208Z,100891.47
2022-08-01T06:27:22.116Z,100899.53
2022-08-01T06:29:51.355Z,100890.97
2022-08-01T06:32:26.530Z,100901.06
2022-08-01T06:34:53.922Z,100894.22
2022-08-01T06:37:20.272Z,100902.28
2022-08-01T06:39:46.517Z,100893.88
2022-08-01T06:42:12.793Z,100898.00
2022-08-01T06:44:39.418Z,100902.78
2022-08-01T06:47:05.896Z,100903.47
2022-08-01T06:49:32.269Z,100911.38
2022-08-01T06:51:58.664Z,100909.28
2022-08-01T06:54:24.918Z,100910.84
2022-08-01T06:56:51.266Z,100914.41
2022-08-01T06:59:17.516Z,100908.06
2022-08-01T07:01:43.816Z,100910.16
2022-08-01T07:04:10.076Z,100916.97
2022-08-01T07:06:36.420Z,100931.53
2022-08-01T07:09:08.233Z,100924.84
2022-08-01T07:11:35.807Z,100927.25
2022-08-01T07:14:02.073Z,100916.81
2022-08-01T07:16:28.393Z,100918.22
2022-08-01T07:18:54.696Z,100910.50
2022-08-01T07:21:40.222Z,100912.22
2022-08-01T07:24:12.623Z,100907.94
2022-08-01T07:26:40.276Z,100918.38
2022-08-01T07:29:19.217Z,100910.31
2022-08-01T07:31:45.446Z,100918.22
2022-08-01T07:34:11.738Z,100910.69
2022-08-01T07:36:37.954Z,100908.78
2022-08-01T07:39:04.382Z,100912.91
2022-08-01T07:41:53.875Z,100914.28
2022-08-01T07:44:16.893Z,100916.00
2022-08-01T07:46:43.348Z,100910.81
2022-08-01T07:49:09.967Z,100913.25
2022-08-01T07:51:36.315Z,100914.09
2022-08-01T07:54:02.642Z,100922.50
2022-08-01T07:56:29.214Z,100920.78
2022-08-01T07:58:55.518Z,100925.78
2022-08-01T08:01:21.851Z,100934.31
2022-08-01T08:03:48.206Z,100930.41
2022-08-01T08:06:14.621Z,100932.28
2022-08-01T08:08:40.945Z,100926.28
2022-08-01T08:11:07.331Z,100928.13
2022-08-01T08:13:33.619Z,100934.31
2022-08-01T08:16:00.015Z,100925.22
2022-08-01T08:18:26.365Z,100932.28
2022-08-01T08:20:52.604Z,100925.41
2022-08-01T08:23:41.584Z,100932.28
2022-08-01T08:26:05.522Z,100930.03
2022-08-01T08:28:31.770Z,100934.66
2022-08-01T08:30:58.059Z,100930.19
2022-08-01T08:33:25.159Z,100931.41
2022-08-01T08:35:53.643Z,100928.47
2022-08-01T08:38:20.884Z,100927.47
2022-08-01T08:40:54.896Z,100941.34
2022-08-01T08:43:21.222Z,100936.88
2022-08-01T08:46:00.148Z,100946.34
2022-08-01T08:48:27.792Z,100949.59
2022-08-01T08:50:54.408Z,100949.72
2022-08-01T08:53:20.651Z,100959.53
2022-08-01T08:55:55.515Z,100954.88
2022-08-01T08:58:26.391Z,100952.31
2022-08-01T09:00:57.968Z,100965.56
2022-08-01T09:03:24.342Z,100952.69
2022-08-01T09:05:50.663Z,100954.72
2022-08-01T09:08:17.035Z,100953.88
2022-08-01T09:10:43.531Z,100954.00
2022-08-01T09:13:09.899Z,100957.22
2022-08-01T09:15:36.367Z,100962.69
2022-08-01T09:18:02.713Z,100959.53
2022-08-01T09:20:29.072Z,100955.44
2022-08-01T09:22:55.540Z,100964.53
2022-08-01T09:25:22.002Z,100964.53
2022-08-01T09:27:56.236Z,100971.72
2022-08-01T09:30:23.678Z,100971.19
2022-08-01T09:32:52.800Z,100974.44
2022-08-01T09:35:19.100Z,100976.31
2022-08-01T09:37:47.404Z,100971.13
2022-08-01T09:40:14.911Z,100974.44
2022-08-01T09:42:41.334Z,100978.19
2022-08-01T09:45:07.713Z,100975.97
2022-08-01T09:47:34.388Z,100982.31
2022-08-01T09:50:10.524Z,100986.97
2022-08-01T09:52:37.517Z,100990.06
2022-08-01T09:55:07.568Z,100992.13
2022-08-01T09:57:33.887Z,100986.63
2022-08-01T10:00:01.298Z,100988.50
2022-08-01T10:02:28.171Z,100986.06
2022-08-01T10:04:59.680Z,100980.72
2022-08-01T10:07:42.891Z,100995.28
2022-08-01T10:10:10.352Z,100997.72
2022-08-01T10:12:37.825Z,100995.28
2022-08-01T10:15:10.478Z,100993.78
2022-08-01T10:17:50.486Z,101004.09
2022-08-01T10:20:28.844Z,101005.16
2022-08-01T10:22:57.012Z,101011.53
2022-08-01T10:25:42.469Z,101009.47
2022-08-01T10:28:09.566Z,101010.31
2022-08-01T10:30:36.631Z,101017.91
2022-08-01T10:33:02.967Z,101010.31
2022-08-01T10:35:47.255Z,101014.06
2022-08-01T10:38:14.285Z,101016.78
2022-08-01T10:40:40.515Z,101010.75
2022-08-01T10:43:06.882Z,101016.63
2022-08-01T10:45:33.112Z,101010.59
2022-08-01T10:47:59.378Z,101014.72
2022-08-01T10:50:26.181Z,101014.72
2022-08-01T10:52:52.625Z,101013.19
2022-08-01T10:55:18.854Z,101013.88
2022-08-01T10:57:48.913Z,101020.72
2022-08-01T11:00:19.331Z,101020.03
2022-08-01T11:02:45.775Z,101011.97
2022-08-01T11:05:14.257Z,101021.09
2022-08-01T11:07:40.799Z,101025.34
2022-08-01T11:10:14.614Z,101026.22
2022-08-01T11:12:41.373Z,101032.25
2022-08-01T11:15:10.337Z,101033.31
2022-08-01T11:17:37.472Z,101024.22
2022-08-01T11:20:05.220Z,101037.22
2022-08-01T11:22:31.472Z,101032.91
2022-08-01T11:24:57.690Z,101035.50
2022-08-01T11:27:24.379Z,101033.59
2022-08-01T11:29:50.596Z,101040.25
2022-08-01T11:32:16.911Z,101038.88
2022-08-01T11:34:43.182Z,101045.53
2022-08-01T11:37:09.694Z,101046.06
2022-08-01T11:39:38.820Z,101046.09
2022-08-01T11:42:05.290Z,101053.00
2022-08-01T11:44:31.563Z,101049.94
2022-08-01T11:46:57.790Z,101048.22
2022-08-01T11:49:24.129Z,101055.44
2022-08-01T11:51:50.918Z,101054.41
2022-08-01T11:54:17.275Z,101067.47
2022-08-01T11:57:02.110Z,101056.19
2022-08-01T11:59:28.365Z,101062.50
2022-08-01T12:02:04.868Z,101072.28
2022-08-01T12:04:31.185Z,101072.16
2022-08-01T12:06:57.387Z,101073.00
2022-08-01T12:09:23.637Z,101078.53
2022-08-01T12:11:49.861Z,101083.84
2022-08-01T12:14:16.108Z,101092.63
2022-08-01T12:16:42.320Z,101087.13
2022-08-01T12:19:11.798Z,101085.91
2022-08-01T12:21:38.225Z,101080.75
2022-08-01T12:24:04.472Z,101077.50
2022-08-01T12:26:32.269Z,101071.31
2022-08-01T12:28:58.670Z,101072.16
2022-08-01T12:31:25.106Z,101074.34
2022-08-01T12:33:51.348Z,101067.75
2022-08-01T12:36:17.582Z,101066.22
2022-08-01T12:38:43.885Z,101063.03
2022-08-01T12:41:10.167Z,101061.03
2022-08-01T12:43:36.414Z,101073.50
2022-08-01T12:46:02.627Z,101053.81
2022-08-01T12:48:29.080Z,101057.56
2022-08-01T12:50:55.332Z,101052.06
2022-08-01T12:53:22.063Z,101058.88
2022-08-01T12:55:58.173Z,101061.75
2022-08-01T12:58:25.990Z,101058.88
2022-08-01T13:00:52.359Z,101066.78
2022-08-01T13:03:18.694Z,101070.09
2022-08-01T13:05:44.932Z,101068.59
2022-08-01T13:08:11.386Z,101055.38
2022-08-01T13:10:37.613Z,101055.50
2022-08-01T13:13:03.881Z,101063.00
2022-08-01T13:15:30.079Z,101060.63
2022-08-01T13:17:56.360Z,101063.13
2022-08-01T13:20:22.571Z,101045.41
2022-08-01T13:22:48.803Z,101049.88
2022-08-01T13:25:17.670Z,101057.41
2022-08-01T13:27:53.705Z,101052.03
2022-08-01T13:30:20.484Z,101056.38
2022-08-01T13:32:46.784Z,101056.53
2022-08-01T13:35:13.054Z,101056.63
2022-08-01T13:37:39.510Z,101059.41
2022-08-01T13:40:06.166Z,101064.88
2022-08-01T13:42:32.525Z,101066.28
2022-08-01T13:44:58.769Z,101061.59
2022-08-01T13:47:32.114Z,101063.06
2022-08-01T13:49:58.878Z,101073.28
2022-08-01T13:52:25.174Z,101066.16
2022-08-01T13:54:51.636Z,101069.09
2022-08-01T13:57:17.997Z,101064.56
2022-08-01T13:59:44.487Z,101071.81
2022-08-01T14:02:10.962Z,101068.59
2022-08-01T14:04:37.256Z,101067.56
2022-08-01T14:07:10.756Z,101070.97
2022-08-01T14:09:38.155Z,101071.53
2022-08-01T14:12:25.035Z,101070.09
2022-08-01T14:14:51.414Z,101076.47
2022-08-01T14:17:17.794Z,101082.03
2022-08-01T14:19:46.345Z,101089.47
2022-08-01T14:22:13.106Z,101090.50
2022-08-01T14:24:39.539Z,101091.47
2022-08-01T14:27:07.374Z,101099.03
2022-08-01T14:30:02.907Z,101106.00
2022-08-01T14:32:25.950Z,101103.88
2022-08-01T14:34:55.309Z,101100.81
2022-08-01T14:37:21.569Z,101104.72
2022-08-01T14:39:54.604Z,101100.28
2022-08-01T14:42:21.170Z,101094.31
2022-08-01T14:44:49.938Z,101093.44
2022-08-01T14:47:21.719Z,101093.44
2022-08-01T14:49:48.856Z,101096.31
2022-08-01T14:52:15.883Z,101098.72
2022-08-01T14:54:42.325Z,101099.19
2022-08-01T14:57:08.591Z,101101.09
2022-08-01T14:59:34.957Z,101104.50
2022-08-01T15:02:01.261Z,101090.31
2022-08-01T15:04:27.652Z,101099.34
2022-08-01T15:06:54.001Z,101113.19
2022-08-01T15:09:20.467Z,101108.16
2022-08-01T15:11:46.856Z,101111.84
2022-08-01T15:14:13.324Z,101110.25
2022-08-01T15:16:39.608Z,101110.31
2022-08-01T15:19:05.949Z,101106.69
2022-08-01T15:21:41.644Z,101113.34
2022-08-01T15:24:08.570Z,101111.16
2022-08-01T15:26:34.900Z,101113.84
2022-08-01T15:29:01.281Z,101120.06
2022-08-01T15:31:27.813Z,101130.13
2022-08-01T15:33:54.202Z,101121.56
2022-08-01T15:36:25.793Z,101124.84
2022-08-01T15:38:53.110Z,101124.50
2022-08-01T15:41:19.426Z,101144.06
2022-08-01T15:43:45.802Z,101133.50
2022-08-01T15:46:22.418Z,101133.31
2022-08-01T15:48:48.784Z,101134.00
2022-08-01T15:51:15.233Z,101134.50
2022-08-01T15:53:41.699Z,101138.56
2022-08-01T15:56:08.109Z,101142.44
2022-08-01T15:58:34.521Z,101140.88
2022-08-01T16:01:00.917Z,101142.91
2022-08-01T16:03:27.404Z,101136.47
2022-08-01T16:05:53.844Z,101141.81
2022-08-01T16:08:20.116Z,101133.03
2022-08-01T16:10:46.488Z,101133.16
2022-08-01T16:13:12.860Z,101133.09
2022-08-01T16:15:39.373Z,101137.06
2022-08-01T16:18:05.749Z,101133.63
2022-08-01T16:20:32.084Z,101133.31
2022-08-01T16:22:58.567Z,101138.84
2022-08-01T16:25:24.840Z,101138.25
2022-08-01T16:27:51.114Z,101138.59
2022-08-01T16:30:17.485Z,101136.09
2022-08-01T16:32:51.083Z,101142.88
2022-08-01T16:35:23.324Z,101145.53
2022-08-01T16:37:50.737Z,101142.84
2022-08-01T16:40:17.186Z,101134.94
2022-08-01T16:42:43.496Z,101142.47
2022-08-01T16:45:13.651Z,101143.00
2022-08-01T16:47:40.380Z,101138.44
2022-08-01T16:50:06.829Z,101142.22
2022-08-01T16:52:33.093Z,101141.00
2022-08-01T16:55:08.114Z,101135.03
2022-08-01T16:57:34.371Z,101135.69
2022-08-01T17:00:00.647Z,101135.28
2022-08-01T17:02:26.940Z,101133.81
2022-08-01T17:04:53.255Z,101136.28
2022-08-01T17:07:19.458Z,101142.19
2022-08-01T17:09:45.721Z,101138.28
2022-08-01T17:12:11.984Z,101145.03
2022-08-01T17:14:38.207Z,101144.94
2022-08-01T17:17:04.893Z,101144.56
2022-08-01T17:19:32.994Z,101152.63
2022-08-01T17:21:59.595Z,101146.13
2022-08-01T17:24:25.827Z,101146.13
2022-08-01T17:26:52.060Z,101140.81
2022-08-01T17:29:18.328Z,101144.44
2022-08-01T17:31:44.548Z,101147.19
2022-08-01T17:34:10.838Z,101146.56
2022-08-01T17:36:37.047Z,101143.81
2022-08-01T17:39:03.300Z,101148.28
2022-08-01T17:41:29.539Z,101149.13
2022-08-01T17:43:55.781Z,101151.25
2022-08-01T17:46:22.030Z,101159.38
2022-08-01T17:48:48.299Z,101156.59
2022-08-01T17:51:18.152Z,101156.25
2022-08-01T17:53:55.569Z,101156.44
2022-08-01T17:56:23.861Z,101155.97
2022-08-01T17:58:52.233Z,101154.22
2022-08-01T18:01:18.870Z,101154.44
2022-08-01T18:03:45.265Z,101157.56
2022-08-01T18:06:11.533Z,101152.22
2022-08-01T18:08:37.977Z,101152.59
2022-08-01T18:11:04.194Z,101156.38
2022-08-01T18:13:30.474Z,101156.56
2022-08-01T18:15:56.807Z,101155.88
2022-08-01T18:18:33.741Z,101148.88
2022-08-01T18:21:00.418Z,101148.06
2022-08-01T18:23:26.725Z,101154.59
2022-08-01T18:25:52.972Z,101153.06
2022-08-01T18:28:31.669Z,101161.69
2022-08-01T18:31:01.508Z,101166.69
2022-08-01T18:33:27.736Z,101165.19
2022-08-01T18:35:54.216Z,101173.09
2022-08-01T18:38:20.516Z,101167.28
2022-08-01T18:40:48.995Z,101174.88
2022-08-01T18:43:15.294Z,101176.97
2022-08-01T18:45:43.157Z,101178.16
2022-08-01T18:48:09.565Z,101172.84
2022-08-01T18:50:35.860Z,101182.31
2022-08-01T18:53:02.147Z,101184.38
2022-08-01T18:55:28.485Z,101178.19
2022-08-01T18:57:54.786Z,101183.88
2022-08-01T19:00:21.277Z,101189.75
2022-08-01T19:02:47.568Z,101189.94
2022-08-01T19:05:13.902Z,101195.44
2022-08-01T19:08:05.387Z,101188.38
2022-08-01T19:10:26.488Z,101199.38
2022-08-01T19:12:52.708Z,101197.63
2022-08-01T19:15:19.303Z,101201.41
2022-08-01T19:17:45.615Z,101204.50
2022-08-01T19:20:11.936Z,101209.53
2022-08-01T19:22:38.188Z,101204.38
2022-08-01T19:25:04.652Z,101215.56
2022-08-01T19:27:30.935Z,101223.81
2022-08-01T19:29:57.306Z,101216.78
2022-08-01T19:32:23.587Z,101220.72
2022-08-01T19:34:50.178Z,101227.25
2022-08-01T19:37:16.610Z,101235.69
2022-08-01T19:39:42.846Z,101230.88
2022-08-01T19:42:09.047Z,101235.50
2022-08-01T19:44:35.400Z,101235.69
2022-08-01T19:47:01.670Z,101235.84
2022-08-01T19:49:27.969Z,101240.16
2022-08-01T19:51:54.199Z,101240.69
2022-08-01T19:54:20.459Z,101239.69
2022-08-01T19:56:46.704Z,101238.47
2022-08-01T19:59:12.960Z,101246.19
2022-08-01T20:01:39.276Z,101252.22
2022-08-01T20:04:05.615Z,101254.47
2022-08-01T20:06:32.128Z,101255.84
2022-08-01T20:08:58.599Z,101261.53
2022-08-01T20:11:24.886Z,101259.13
2022-08-01T20:13:51.195Z,101253.09
2022-08-01T20:16:17.445Z,101260.66
2022-08-01T20:18:43.750Z,101270.09
2022-08-01T20:21:10.061Z,101274.91
2022-08-01T20:23:36.488Z,101270.63
2022-08-01T20:26:02.806Z,101276.47
2022-08-01T20:28:29.026Z,101278.50
2022-08-01T20:30:55.282Z,101279.66
2022-08-01T20:33:21.551Z,101282.59
2022-08-01T20:35:52.200Z,101286.38
2022-08-01T20:38:20.358Z,101293.75
2022-08-01T20:40:49.352Z,101298.38
2022-08-01T20:43:15.598Z,101294.75
2022-08-01T20:45:41.827Z,101301.31
2022-08-01T20:48:08.088Z,101297.00
2022-08-01T20:50:53.929Z,101303.53
2022-08-01T20:53:20.674Z,101305.75
2022-08-01T20:55:46.937Z,101316.03
2022-08-01T20:58:13.216Z,101314.81
2022-08-01T21:00:39.541Z,101313.44
2022-08-01T21:03:05.781Z,101315.69
2022-08-01T21:05:31.997Z,101316.19
2022-08-01T21:07:58.198Z,101318.38
2022-08-01T21:10:24.427Z,101325.22
2022-08-01T21:12:50.656Z,101329.34
2022-08-01T21:15:16.908Z,101325.69
2022-08-01T21:17:43.109Z,101330.84
2022-08-01T21:20:09.444Z,101329.44
2022-08-01T21:22:35.744Z,101337.47
2022-08-01T21:25:02.042Z,101334.22
2022-08-01T21:27:33.298Z,101342.06
2022-08-01T21:30:00.400Z,101337.25
2022-08-01T21:32:26.619Z,101340.28
2022-08-01T21:34:55.692Z,101341.63
2022-08-01T21:37:21.980Z,101336.81
2022-08-01T21:39:48.244Z,101341.72
2022-08-01T21:42:18.709Z,101338.47
2022-08-01T21:44:45.719Z,101340.13
2022-08-01T21:47:12.169Z,101340.94
2022-08-01T21:49:38.486Z,101349.47
2022-08-01T21:52:08.744Z,101347.06
2022-08-01T21:54:35.384Z,101353.03
2022-08-01T21:57:01.646Z,101361.53
2022-08-01T21:59:27.923Z,101365.66
2022-08-01T22:01:54.355Z,101360.34
2022-08-01T22:04:20.841Z,101362.34
2022-08-01T22:06:47.183Z,101360.78
2022-08-01T22:09:13.620Z,101369.00
2022-08-01T22:11:59.374Z,101366.28
2022-08-01T22:14:26.221Z,101361.81
2022-08-01T22:16:52.508Z,101375.69
2022-08-01T22:19:44.565Z,101375.81
2022-08-01T22:22:32.221Z,101372.41
2022-08-01T22:24:52.221Z,101368.06
2022-08-01T22:27:18.515Z,101366.50
2022-08-01T22:29:44.849Z,101370.44
2022-08-01T22:32:11.440Z,101369.88
2022-08-01T22:34:37.931Z,101380.16
2022-08-01T22:37:06.737Z,101385.06
2022-08-01T22:39:41.114Z,101374.59
2022-08-01T22:42:07.350Z,101376.09
2022-08-01T22:44:33.607Z,101374.63
2022-08-01T22:46:59.884Z,101374.94
2022-08-01T22:49:26.378Z,101388.13
2022-08-01T22:51:55.709Z,101378.31
2022-08-01T22:54:22.422Z,101384.13
2022-08-01T22:56:48.760Z,101382.38
2022-08-01T22:59:15.011Z,101380.66
2022-08-01T23:01:41.542Z,101384.56
2022-08-01T23:04:14.333Z,101372.91
2022-08-01T23:06:40.820Z,101371.50
2022-08-01T23:09:07.109Z,101380.00
2022-08-01T23:11:33.640Z,101386.66
2022-08-01T23:13:59.899Z,101394.47
2022-08-01T23:16:26.212Z,101383.44
2022-08-01T23:18:52.537Z,101389.38
2022-08-01T23:21:18.852Z,101395.28
2022-08-01T23:23:45.138Z,101392.00
2022-08-01T23:26:11.590Z,101385.09
2022-08-01T23:28:41.866Z,101392.72
2022-08-01T23:31:08.198Z,101392.19
2022-08-01T23:33:34.540Z,101392.66
2022-08-01T23:36:00.878Z,101398.28
2022-08-01T23:38:27.139Z,101397.56
2022-08-01T23:40:53.500Z,101398.44
2022-08-01T23:43:19.877Z,101394.97
2022-08-01T23:46:03.309Z,101398.69
2022-08-01T23:48:31.497Z,101386.06
2022-08-01T23:50:57.793Z,101382.44
2022-08-01T23:53:24.233Z,101392.69
2022-08-01T23:55:57.336Z,101391.09
2022-08-01T23:58:24.017Z,101383.22
